createdAt,value
2023-02-24T00:01:00.606Z,72.80
2023-02-24T00:03:27.389Z,72.80
2023-02-24T00:05:54.185Z,72.90
2023-02-24T00:08:20.935Z,73.00
2023-02-24T00:10:47.668Z,73.30
2023-02-24T00:13:14.452Z,73.30
2023-02-24T00:15:41.166Z,73.30
2023-02-24T00:18:08.090Z,73.50
2023-02-24T00:20:34.983Z,73.80
2023-02-24T00:23:01.698Z,73.90
2023-02-24T00:25:28.477Z,74.10
2023-02-24T00:27:55.212Z,74.10
2023-02-24T00:30:22.041Z,74.30
2023-02-24T00:32:48.832Z,74.50
2023-02-24T00:35:15.788Z,74.40
2023-02-24T00:37:42.522Z,74.50
2023-02-24T00:40:10.072Z,74.70
2023-02-24T00:42:37.592Z,74.70
2023-02-24T00:45:04.772Z,74.60
2023-02-24T00:47:31.380Z,74.60
2023-02-24T00:49:57.983Z,74.60
2023-02-24T00:52:24.615Z,74.70
2023-02-24T00:54:51.247Z,74.90
2023-02-24T00:57:17.979Z,75.00
2023-02-24T00:59:44.650Z,74.90
2023-02-24T01:02:11.351Z,75.00
2023-02-24T01:04:38.030Z,75.10
2023-02-24T01:07:04.781Z,75.20
2023-02-24T01:09:32.189Z,75.30
2023-02-24T01:11:59.006Z,75.10
2023-02-24T01:14:27.671Z,75.10
2023-02-24T01:16:54.534Z,75.00
2023-02-24T01:19:26.244Z,74.80
2023-02-24T01:21:52.954Z,74.80
2023-02-24T01:24:19.565Z,74.70
2023-02-24T01:26:46.199Z,74.70
2023-02-24T01:29:12.891Z,74.70
2023-02-24T01:31:39.854Z,74.80
2023-02-24T01:34:06.694Z,74.80
2023-02-24T01:36:33.435Z,74.80
2023-02-24T01:39:00.689Z,74.80
2023-02-24T01:41:27.946Z,74.90
2023-02-24T01:44:08.183Z,74.90
2023-02-24T01:46:36.443Z,74.90
2023-02-24T01:50:00.491Z,74.80
2023-02-24T01:52:29.790Z,74.60
2023-02-24T01:55:01.211Z,74.50
2023-02-24T01:57:29.184Z,74.60
2023-02-24T01:59:55.903Z,74.90
2023-02-24T02:02:23.338Z,74.90
2023-02-24T02:04:52.936Z,74.90
2023-02-24T02:07:21.036Z,75.10
2023-02-24T02:09:47.919Z,75.30
2023-02-24T02:12:14.632Z,75.50
2023-02-24T02:14:44.424Z,75.60
2023-02-24T02:17:34.640Z,75.70
2023-02-24T02:20:23.491Z,75.80
2023-02-24T02:23:20.993Z,76.00
2023-02-24T02:26:03.544Z,76.40
2023-02-24T02:28:50.970Z,76.40
2023-02-24T02:31:36.316Z,76.50
2023-02-24T02:34:24.092Z,76.70
2023-02-24T02:36:57.707Z,76.80
2023-02-24T02:39:51.619Z,76.90
2023-02-24T02:42:46.356Z,77.00
2023-02-24T02:45:22.459Z,77.30
2023-02-24T02:47:50.853Z,77.20
2023-02-24T02:50:19.550Z,77.40
2023-02-24T02:52:58.057Z,77.60
2023-02-24T02:55:46.605Z,77.70
2023-02-24T02:58:13.883Z,77.80
2023-02-24T03:00:51.815Z,78.50
2023-02-24T03:03:18.471Z,77.80
2023-02-24T03:05:51.897Z,77.80
2023-02-24T03:08:21.972Z,77.70
2023-02-24T03:10:48.700Z,77.70
2023-02-24T03:13:15.275Z,77.80
2023-02-24T03:15:41.910Z,77.90
2023-02-24T03:18:12.663Z,78.10
2023-02-24T03:20:44.633Z,78.10
2023-02-24T03:23:13.022Z,78.10
2023-02-24T03:25:46.614Z,78.10
2023-02-24T03:28:37.754Z,78.10
2023-02-24T03:31:15.959Z,78.10
2023-02-24T03:33:46.772Z,78.10
2023-02-24T03:36:13.475Z,78.10
2023-02-24T03:38:40.233Z,78.30
2023-02-24T03:41:06.869Z,78.40
2023-02-24T03:43:34.043Z,78.50
2023-02-24T03:46:00.755Z,78.40
2023-02-24T03:48:27.780Z,78.50
2023-02-24T03:50:54.559Z,78.40
2023-02-24T03:53:31.183Z,78.50
2023-02-24T03:56:07.217Z,78.20
2023-02-24T03:59:23.286Z,78.40
2023-02-24T04:01:56.423Z,78.40
2023-02-24T04:04:43.618Z,78.30
2023-02-24T04:07:17.256Z,78.30
2023-02-24T04:10:00.606Z,78.40
2023-02-24T04:12:47.497Z,78.40
2023-02-24T04:15:17.806Z,78.50
2023-02-24T04:17:48.978Z,78.60
2023-02-24T04:20:17.001Z,78.70
2023-02-24T04:22:45.377Z,78.70
2023-02-24T04:25:12.003Z,78.80
2023-02-24T04:27:38.684Z,79.00
2023-02-24T04:30:05.846Z,79.30
2023-02-24T04:32:32.789Z,79.40
2023-02-24T04:35:08.198Z,79.50
2023-02-24T04:37:35.131Z,79.60
2023-02-24T04:40:02.020Z,79.60
2023-02-24T04:42:28.684Z,79.60
2023-02-24T04:44:55.389Z,79.50
2023-02-24T04:47:22.044Z,79.30
2023-02-24T04:49:48.720Z,79.00
2023-02-24T04:52:15.437Z,78.70
2023-02-24T04:54:42.114Z,78.70
2023-02-24T04:57:08.755Z,78.60
2023-02-24T04:59:35.338Z,78.70
2023-02-24T05:02:01.989Z,78.80
2023-02-24T05:04:28.888Z,78.70
2023-02-24T05:06:56.297Z,78.70
2023-02-24T05:09:23.289Z,78.80
2023-02-24T05:11:51.347Z,78.70
2023-02-24T05:14:19.235Z,78.60
2023-02-24T05:16:46.981Z,78.60
2023-02-24T05:19:15.351Z,78.50
2023-02-24T05:21:41.992Z,78.40
2023-02-24T05:24:08.656Z,78.30
2023-02-24T05:26:36.145Z,78.30
2023-02-24T05:29:03.226Z,78.30
2023-02-24T05:31:30.340Z,78.20
2023-02-24T05:34:04.965Z,78.30
2023-02-24T05:36:33.912Z,78.30
2023-02-24T05:39:00.551Z,78.30
2023-02-24T05:41:27.508Z,78.30
2023-02-24T05:43:55.334Z,78.20
2023-02-24T05:46:23.318Z,78.40
2023-02-24T05:48:52.987Z,78.50
2023-02-24T05:51:19.896Z,78.60
2023-02-24T05:53:46.736Z,78.50
2023-02-24T05:56:13.366Z,78.40
2023-02-24T05:58:40.032Z,78.30
2023-02-24T06:01:13.287Z,78.40
2023-02-24T06:03:39.982Z,78.30
2023-02-24T06:06:06.760Z,78.30
2023-02-24T06:08:33.499Z,78.20
2023-02-24T06:11:00.145Z,78.20
2023-02-24T06:13:26.788Z,78.30
2023-02-24T06:15:56.401Z,78.20
2023-02-24T06:18:23.079Z,78.20
2023-02-24T06:20:49.768Z,78.20
2023-02-24T06:23:16.559Z,78.20
2023-02-24T06:25:43.466Z,78.20
2023-02-24T06:28:10.171Z,78.20
2023-02-24T06:30:36.967Z,78.30
2023-02-24T06:33:04.087Z,78.30
2023-02-24T06:35:30.838Z,78.40
2023-02-24T06:37:57.450Z,78.50
2023-02-24T06:40:24.172Z,78.60
2023-02-24T06:42:52.082Z,78.60
2023-02-24T06:45:18.692Z,78.70
2023-02-24T06:47:45.321Z,78.70
2023-02-24T06:50:12.120Z,78.80
2023-02-24T06:52:38.937Z,78.70
2023-02-24T06:55:06.214Z,78.70
2023-02-24T06:57:33.226Z,78.60
2023-02-24T07:00:00.788Z,78.50
2023-02-24T07:02:27.554Z,78.30
2023-02-24T07:04:54.317Z,78.20
2023-02-24T07:07:21.253Z,77.80
2023-02-24T07:09:48.032Z,77.90
2023-02-24T07:12:14.891Z,77.80
2023-02-24T07:14:41.654Z,77.50
2023-02-24T07:17:08.465Z,77.60
2023-02-24T07:19:35.366Z,77.50
2023-02-24T07:22:02.892Z,77.40
2023-02-24T07:24:31.378Z,77.40
2023-02-24T07:26:59.492Z,77.30
2023-02-24T07:29:27.852Z,77.10
2023-02-24T07:31:54.748Z,77.00
2023-02-24T07:34:23.005Z,76.80
2023-02-24T07:36:50.850Z,77.00
2023-02-24T07:39:17.702Z,76.80
2023-02-24T07:41:44.341Z,76.50
2023-02-24T07:44:10.954Z,76.50
2023-02-24T07:46:37.782Z,76.40
2023-02-24T07:49:04.494Z,76.10
2023-02-24T07:51:31.378Z,75.90
2023-02-24T07:53:59.286Z,75.90
2023-02-24T07:56:27.346Z,75.90
2023-02-24T07:58:57.791Z,75.70
2023-02-24T08:01:34.339Z,75.50
2023-02-24T08:04:00.995Z,75.30
2023-02-24T08:06:37.788Z,75.40
2023-02-24T08:09:08.826Z,75.00
2023-02-24T08:11:35.622Z,75.00
2023-02-24T08:14:03.306Z,74.80
2023-02-24T08:16:30.239Z,74.50
2023-02-24T08:18:56.891Z,74.40
2023-02-24T08:21:23.557Z,74.50
2023-02-24T08:23:50.392Z,74.70
2023-02-24T08:26:17.264Z,74.90
2023-02-24T08:28:44.199Z,75.20
2023-02-24T08:31:11.056Z,75.20
2023-02-24T08:33:38.204Z,75.20
2023-02-24T08:36:05.270Z,75.40
2023-02-24T08:38:33.865Z,75.40
2023-02-24T08:41:00.580Z,75.50
2023-02-24T08:43:31.042Z,75.50
2023-02-24T08:46:03.724Z,75.40
2023-02-24T08:48:38.994Z,74.90
2023-02-24T08:51:14.240Z,74.70
2023-02-24T08:53:41.424Z,74.90
2023-02-24T08:56:10.044Z,74.60
2023-02-24T08:58:41.181Z,74.50
2023-02-24T09:01:12.964Z,74.60
2023-02-24T09:03:41.994Z,74.30
2023-02-24T09:06:09.115Z,74.00
2023-02-24T09:08:38.615Z,73.20
2023-02-24T09:11:10.156Z,73.00
2023-02-24T09:13:42.637Z,72.80
2023-02-24T09:16:09.803Z,72.60
2023-02-24T09:18:36.687Z,72.50
2023-02-24T09:21:09.480Z,72.00
2023-02-24T09:23:36.246Z,72.30
2023-02-24T09:26:04.040Z,72.10
2023-02-24T09:28:31.363Z,72.30
2023-02-24T09:30:59.496Z,72.00
2023-02-24T09:33:30.185Z,71.90
2023-02-24T09:36:01.952Z,71.70
2023-02-24T09:38:29.134Z,71.70
2023-02-24T09:40:55.895Z,71.60
2023-02-24T09:43:26.553Z,71.50
2023-02-24T09:46:14.024Z,71.50
2023-02-24T09:48:56.901Z,71.50
2023-02-24T09:51:24.351Z,71.50
2023-02-24T09:53:55.080Z,71.90
2023-02-24T09:56:34.948Z,72.20
2023-02-24T09:59:32.285Z,72.30
2023-02-24T10:02:29.721Z,72.30
2023-02-24T10:05:04.015Z,72.40
2023-02-24T10:07:32.616Z,72.60
2023-02-24T10:10:21.285Z,72.80
2023-02-24T10:12:51.208Z,72.80
2023-02-24T10:15:19.003Z,73.00
2023-02-24T10:17:53.920Z,73.60
2023-02-24T10:20:21.845Z,73.20
2023-02-24T10:23:14.434Z,73.20
2023-02-24T10:26:13.243Z,73.80
2023-02-24T10:28:47.897Z,73.70
2023-02-24T10:31:41.490Z,73.80
2023-02-24T10:34:13.203Z,73.80
2023-02-24T10:36:39.948Z,73.90
2023-02-24T10:39:19.785Z,74.10
2023-02-24T10:41:51.707Z,73.80
2023-02-24T10:44:22.650Z,73.70
2023-02-24T10:47:10.165Z,73.40
2023-02-24T10:49:52.316Z,72.90
2023-02-24T10:52:19.118Z,72.70
2023-02-24T10:54:45.929Z,72.90
2023-02-24T10:57:13.210Z,72.80
2023-02-24T10:59:47.142Z,72.80
2023-02-24T11:02:19.285Z,72.90
2023-02-24T11:04:46.025Z,73.00
2023-02-24T11:07:14.408Z,73.20
2023-02-24T11:09:41.213Z,73.30
2023-02-24T11:12:21.970Z,73.50
2023-02-24T11:14:52.560Z,73.90
2023-02-24T11:17:22.894Z,74.10
2023-02-24T11:19:54.831Z,74.20
2023-02-24T11:22:23.544Z,74.40
2023-02-24T11:24:50.451Z,74.80
2023-02-24T11:27:18.712Z,75.20
2023-02-24T11:30:00.779Z,75.50
2023-02-24T11:32:43.766Z,76.50
2023-02-24T11:35:25.593Z,78.50
2023-02-24T11:38:29.753Z,77.60
2023-02-24T11:41:09.444Z,79.90
2023-02-24T11:43:37.385Z,79.70
2023-02-24T11:46:19.898Z,79.50
2023-02-24T11:48:52.040Z,79.60
2023-02-24T11:51:24.595Z,79.80
2023-02-24T11:53:51.374Z,80.30
2023-02-24T11:56:41.190Z,81.10
2023-02-24T11:59:44.428Z,81.60
2023-02-24T12:02:15.990Z,82.30
2023-02-24T12:04:59.026Z,82.50
2023-02-24T12:07:28.550Z,83.00
2023-02-24T12:10:21.310Z,83.10
2023-02-24T12:12:57.030Z,83.80
2023-02-24T12:15:24.758Z,83.70
2023-02-24T12:17:54.023Z,83.70
2023-02-24T12:20:30.384Z,84.50
2023-02-24T12:23:01.040Z,84.60
2023-02-24T12:25:56.664Z,84.50
2023-02-24T12:28:37.896Z,85.50
2023-02-24T12:31:26.014Z,85.60
2023-02-24T12:33:55.715Z,85.30
2023-02-24T12:36:47.808Z,85.60
2023-02-24T12:39:19.988Z,85.90
2023-02-24T12:42:11.098Z,86.20
2023-02-24T12:44:59.833Z,86.00
2023-02-24T12:47:45.336Z,87.10
2023-02-24T12:50:30.400Z,86.60
2023-02-24T12:53:05.172Z,87.10
2023-02-24T12:56:04.301Z,86.90
2023-02-24T12:58:33.247Z,87.00
2023-02-24T13:01:19.110Z,87.80
2023-02-24T13:04:04.492Z,88.10
2023-02-24T13:06:34.240Z,88.50
2023-02-24T13:09:24.944Z,87.90
2023-02-24T13:12:11.929Z,87.90
2023-02-24T13:14:39.725Z,88.40
2023-02-24T13:17:10.020Z,89.10
2023-02-24T13:19:40.129Z,88.70
2023-02-24T13:22:12.896Z,89.00
2023-02-24T13:24:43.964Z,88.90
2023-02-24T13:27:13.456Z,88.70
2023-02-24T13:29:44.764Z,88.70
2023-02-24T13:32:30.575Z,89.20
2023-02-24T13:34:59.261Z,89.40
2023-02-24T13:37:38.105Z,89.00
2023-02-24T13:40:16.664Z,88.90
2023-02-24T13:42:59.611Z,88.40
2023-02-24T13:45:26.296Z,88.60
2023-02-24T13:48:30.361Z,88.60
2023-02-24T13:51:28.863Z,88.40
2023-02-24T13:54:30.274Z,88.40
2023-02-24T13:56:57.407Z,88.40
2023-02-24T13:59:44.963Z,88.00
2023-02-24T14:02:18.020Z,87.90
2023-02-24T14:04:49.855Z,88.00
2023-02-24T14:07:33.019Z,87.80
2023-02-24T14:10:04.901Z,88.00
2023-02-24T14:12:36.702Z,88.10
2023-02-24T14:15:04.274Z,88.20
2023-02-24T14:17:34.958Z,88.50
2023-02-24T14:20:07.464Z,88.50
2023-02-24T14:22:34.353Z,88.60
2023-02-24T14:25:02.365Z,89.10
2023-02-24T14:27:29.048Z,90.40
2023-02-24T14:29:55.790Z,89.30
2023-02-24T14:32:24.407Z,88.50
2023-02-24T14:34:51.315Z,88.70
2023-02-24T14:37:23.238Z,87.90
2023-02-24T14:39:51.445Z,86.20
2023-02-24T14:42:18.227Z,84.90
2023-02-24T14:44:54.437Z,84.20
2023-02-24T14:47:22.818Z,84.00
2023-02-24T14:49:54.244Z,83.80
2023-02-24T14:52:46.318Z,84.10
2023-02-24T14:55:21.362Z,83.80
2023-02-24T14:57:50.018Z,83.50
2023-02-24T15:00:23.330Z,83.10
2023-02-24T15:03:06.336Z,82.20
2023-02-24T15:05:33.092Z,82.10
2023-02-24T15:08:01.099Z,82.10
2023-02-24T15:10:29.529Z,81.70
2023-02-24T15:13:10.489Z,81.80
2023-02-24T15:15:37.264Z,81.50
2023-02-24T15:18:09.705Z,81.30
2023-02-24T15:20:37.614Z,79.70
2023-02-24T15:23:04.399Z,79.40
2023-02-24T15:25:44.671Z,79.50
2023-02-24T15:28:28.327Z,79.70
2023-02-24T15:31:17.940Z,79.80
2023-02-24T15:33:47.082Z,79.70
2023-02-24T15:36:18.996Z,79.70
2023-02-24T15:38:45.824Z,79.90
2023-02-24T15:41:13.168Z,79.70
2023-02-24T15:43:50.606Z,79.30
2023-02-24T15:46:33.331Z,78.90
2023-02-24T15:49:00.185Z,78.40
2023-02-24T15:51:42.483Z,78.20
2023-02-24T15:54:16.845Z,78.10
2023-02-24T15:56:43.916Z,78.00
2023-02-24T15:59:17.506Z,78.20
2023-02-24T16:01:44.371Z,78.20
2023-02-24T16:04:11.124Z,77.80
2023-02-24T16:06:38.275Z,77.20
2023-02-24T16:09:04.997Z,76.70
2023-02-24T16:11:32.089Z,76.30
2023-02-24T16:13:59.088Z,75.90
2023-02-24T16:16:26.538Z,76.30
2023-02-24T16:18:53.556Z,76.50
2023-02-24T16:21:20.468Z,76.60
2023-02-24T16:23:47.249Z,76.70
2023-02-24T16:26:19.317Z,76.80
2023-02-24T16:28:48.457Z,77.00
2023-02-24T16:31:15.354Z,77.20
2023-02-24T16:33:54.121Z,77.40
2023-02-24T16:36:27.036Z,77.60
2023-02-24T16:38:53.924Z,77.80
2023-02-24T16:41:20.657Z,78.00
2023-02-24T16:43:47.368Z,78.30
2023-02-24T16:46:19.004Z,78.60
2023-02-24T16:48:46.786Z,78.80
2023-02-24T16:51:14.750Z,78.90
2023-02-24T16:53:41.548Z,78.90
2023-02-24T16:56:08.969Z,78.90
2023-02-24T16:58:36.834Z,79.00
2023-02-24T17:01:07.631Z,78.90
2023-02-24T17:03:45.425Z,78.90
2023-02-24T17:06:12.231Z,78.80
2023-02-24T17:08:39.107Z,78.80
2023-02-24T17:11:05.941Z,78.80
2023-02-24T17:13:32.723Z,78.90
2023-02-24T17:16:00.571Z,79.00
2023-02-24T17:18:27.526Z,79.30
2023-02-24T17:20:54.270Z,79.60
2023-02-24T17:23:21.258Z,79.80
2023-02-24T17:25:52.807Z,80.20
2023-02-24T17:28:20.593Z,80.60
2023-02-24T17:30:47.381Z,80.50
2023-02-24T17:33:14.202Z,80.50
2023-02-24T17:35:44.250Z,80.20
2023-02-24T17:38:14.706Z,80.00
2023-02-24T17:40:46.803Z,79.90
2023-02-24T17:43:13.691Z,80.00
2023-02-24T17:45:41.598Z,79.90
2023-02-24T17:48:08.898Z,80.10
2023-02-24T17:50:35.702Z,80.30
2023-02-24T17:53:02.522Z,80.40
2023-02-24T17:55:29.218Z,80.70
2023-02-24T17:57:57.255Z,81.00
2023-02-24T18:00:24.133Z,81.10
2023-02-24T18:02:53.420Z,81.20
2023-02-24T18:05:20.339Z,81.20
2023-02-24T18:07:47.099Z,81.30
2023-02-24T18:10:13.824Z,82.00
2023-02-24T18:12:40.628Z,82.20
2023-02-24T18:15:09.510Z,82.40
2023-02-24T18:17:37.475Z,82.60
2023-02-24T18:20:05.652Z,82.50
2023-02-24T18:22:32.404Z,82.50
2023-02-24T18:24:59.134Z,82.50
2023-02-24T18:27:26.225Z,82.80
2023-02-24T18:29:53.804Z,82.80
2023-02-24T18:32:20.708Z,82.80
2023-02-24T18:34:51.735Z,82.70
2023-02-24T18:37:18.490Z,82.60
2023-02-24T18:39:45.187Z,82.60
2023-02-24T18:42:11.956Z,82.90
2023-02-24T18:44:38.641Z,83.20
2023-02-24T18:47:05.454Z,83.40
2023-02-24T18:49:32.175Z,83.50
2023-02-24T18:51:58.891Z,83.60
2023-02-24T18:54:26.108Z,83.60
2023-02-24T18:56:52.838Z,83.50
2023-02-24T18:59:19.523Z,83.40
2023-02-24T19:01:46.646Z,83.30
2023-02-24T19:04:13.395Z,82.90
2023-02-24T19:06:40.163Z,82.60
2023-02-24T19:09:08.442Z,82.20
2023-02-24T19:11:35.136Z,82.00
2023-02-24T19:14:02.087Z,81.90
2023-02-24T19:16:28.986Z,81.70
2023-02-24T19:18:56.621Z,81.70
2023-02-24T19:21:24.468Z,81.60
2023-02-24T19:23:51.441Z,81.70
2023-02-24T19:26:25.966Z,81.70
2023-02-24T19:28:52.994Z,81.70
2023-02-24T19:31:21.746Z,81.90
2023-02-24T19:33:59.513Z,81.80
2023-02-24T19:36:27.258Z,82.00
2023-02-24T19:38:53.970Z,82.20
2023-02-24T19:41:20.731Z,82.20
2023-02-24T19:43:47.686Z,82.20
2023-02-24T19:46:15.112Z,82.20
2023-02-24T19:48:42.088Z,82.50
2023-02-24T19:51:16.938Z,82.70
2023-02-24T19:53:43.776Z,82.60
2023-02-24T19:56:10.652Z,82.70
2023-02-24T19:58:37.442Z,82.80
2023-02-24T20:01:08.382Z,82.90
2023-02-24T20:03:36.687Z,82.90
2023-02-24T20:06:03.710Z,82.90
2023-02-24T20:08:31.205Z,83.10
2023-02-24T20:11:01.591Z,83.20
2023-02-24T20:13:28.654Z,83.20
2023-02-24T20:16:11.526Z,83.40
2023-02-24T20:18:38.656Z,83.40
2023-02-24T20:21:05.413Z,83.50
2023-02-24T20:23:32.177Z,83.60
2023-02-24T20:25:59.043Z,84.00
2023-02-24T20:28:26.240Z,84.20
2023-02-24T20:30:53.629Z,84.40
2023-02-24T20:33:20.521Z,84.40
2023-02-24T20:35:47.216Z,84.30
2023-02-24T20:38:14.153Z,84.30
2023-02-24T20:40:40.908Z,84.20
2023-02-24T20:43:08.560Z,84.10
2023-02-24T20:45:37.134Z,84.00
2023-02-24T20:48:04.210Z,83.90
2023-02-24T20:50:30.993Z,83.90
2023-02-24T20:52:57.906Z,83.70
2023-02-24T20:55:24.630Z,83.70
2023-02-24T20:57:51.596Z,83.60
2023-02-24T21:00:18.738Z,83.30
2023-02-24T21:02:45.398Z,83.10
2023-02-24T21:05:22.663Z,82.90
2023-02-24T21:07:49.784Z,82.90
2023-02-24T21:10:17.505Z,82.80
2023-02-24T21:12:44.228Z,82.70
2023-02-24T21:15:11.192Z,82.60
2023-02-24T21:17:39.062Z,82.70
2023-02-24T21:20:07.027Z,82.70
2023-02-24T21:22:34.056Z,82.90
2023-02-24T21:25:00.816Z,83.20
2023-02-24T21:27:27.506Z,83.50
2023-02-24T21:29:54.359Z,84.00
2023-02-24T21:32:22.362Z,84.30
2023-02-24T21:34:50.252Z,84.50
2023-02-24T21:37:16.998Z,84.40
2023-02-24T21:39:44.686Z,84.00
2023-02-24T21:42:11.464Z,83.80
2023-02-24T21:44:38.612Z,83.70
2023-02-24T21:47:05.488Z,83.40
2023-02-24T21:49:32.431Z,83.30
2023-02-24T21:51:59.355Z,83.30
2023-02-24T21:54:27.036Z,83.20
2023-02-24T21:56:53.653Z,83.20
2023-02-24T21:59:21.043Z,83.10
2023-02-24T22:01:47.801Z,82.90
2023-02-24T22:04:16.681Z,83.00
2023-02-24T22:06:44.825Z,83.00
2023-02-24T22:09:11.915Z,83.00
2023-02-24T22:11:40.355Z,83.00
2023-02-24T22:14:10.421Z,82.80
2023-02-24T22:16:37.248Z,82.80
2023-02-24T22:19:04.138Z,82.80
2023-02-24T22:21:31.115Z,82.70
2023-02-24T22:24:00.416Z,82.60
2023-02-24T22:26:28.547Z,82.50
2023-02-24T22:28:55.478Z,82.20
2023-02-24T22:31:24.657Z,82.10
2023-02-24T22:33:51.516Z,82.10
2023-02-24T22:36:20.294Z,82.30
2023-02-24T22:38:47.177Z,82.50
2023-02-24T22:41:15.528Z,82.60
2023-02-24T22:43:42.270Z,82.70
2023-02-24T22:46:11.717Z,82.80
2023-02-24T22:48:38.313Z,82.70
2023-02-24T22:51:06.037Z,82.40
2023-02-24T22:53:34.650Z,82.30
2023-02-24T22:56:01.344Z,82.20
2023-02-24T22:58:28.070Z,81.90
2023-02-24T23:00:56.233Z,81.70
2023-02-24T23:03:24.768Z,81.30
2023-02-24T23:05:59.740Z,80.90
2023-02-24T23:08:27.330Z,80.60
2023-02-24T23:10:54.329Z,80.50
2023-02-24T23:13:21.023Z,80.00
2023-02-24T23:15:50.643Z,79.70
2023-02-24T23:18:17.347Z,79.60
2023-02-24T23:20:43.940Z,79.40
2023-02-24T23:23:10.838Z,79.10
2023-02-24T23:25:38.146Z,78.60
2023-02-24T23:28:05.552Z,78.60
2023-02-24T23:30:32.282Z,78.70
2023-02-24T23:32:58.894Z,78.70
2023-02-24T23:35:25.570Z,79.00
2023-02-24T23:37:52.279Z,79.20
2023-02-24T23:40:19.028Z,79.20
2023-02-24T23:42:45.706Z,79.10
2023-02-24T23:45:12.391Z,79.30
2023-02-24T23:47:39.024Z,79.40
2023-02-24T23:50:06.037Z,79.20
2023-02-24T23:52:32.717Z,79.00
2023-02-24T23:54:59.340Z,78.60
2023-02-24T23:57:27.221Z,78.50
2023-02-24T23:59:54.034Z,78.30
